createdAt,value
2019-03-24T00:00:08.233Z,3.20
2019-03-24T00:02:37.142Z,3.20
2019-03-24T00:05:07.416Z,3.30
2019-03-24T00:07:36.360Z,3.30
2019-03-24T00:10:07.247Z,3.30
2019-03-24T00:12:36.196Z,3.20
2019-03-24T00:15:07.617Z,3.10
2019-03-24T00:17:36.620Z,3.10
2019-03-24T00:20:07.026Z,3.20
2019-03-24T00:22:35.965Z,3.20
2019-03-24T00:25:06.770Z,3.20
2019-03-24T00:27:35.722Z,3.20
2019-03-24T00:30:07.422Z,3.20
2019-03-24T00:32:36.481Z,3.30
2019-03-24T00:35:07.780Z,3.30
2019-03-24T00:37:36.719Z,3.20
2019-03-24T00:40:07.621Z,3.30
2019-03-24T00:42:36.577Z,3.30
2019-03-24T00:45:09.428Z,3.30
2019-03-24T00:47:38.367Z,3.20
2019-03-24T00:50:07.978Z,3.20
2019-03-24T00:52:36.919Z,3.10
2019-03-24T00:55:07.228Z,3.00
2019-03-24T00:57:37.639Z,2.90
2019-03-24T01:00:08.586Z,3.00
2019-03-24T01:02:37.956Z,2.90
2019-03-24T01:05:08.625Z,3.00
2019-03-24T01:07:37.578Z,3.00
2019-03-24T01:10:09.770Z,3.00
2019-03-24T01:12:38.717Z,3.00
2019-03-24T01:15:08.137Z,3.00
2019-03-24T01:17:38.381Z,2.90
2019-03-24T01:20:08.987Z,2.90
2019-03-24T01:22:37.941Z,2.90
2019-03-24T01:25:07.047Z,2.90
2019-03-24T01:27:35.994Z,2.90
2019-03-24T01:30:09.282Z,2.80
2019-03-24T01:32:38.264Z,2.80
2019-03-24T01:35:07.479Z,2.80
2019-03-24T01:37:36.423Z,2.80
2019-03-24T01:40:06.729Z,2.80
2019-03-24T01:42:35.714Z,2.90
2019-03-24T01:45:06.808Z,2.90
2019-03-24T01:47:35.721Z,3.00
2019-03-24T01:50:06.487Z,3.00
2019-03-24T01:52:35.391Z,3.00
2019-03-24T01:55:05.844Z,3.00
2019-03-24T01:57:34.757Z,3.00
2019-03-24T02:00:05.098Z,3.10
2019-03-24T02:02:34.010Z,3.20
2019-03-24T02:05:04.456Z,3.20
2019-03-24T02:07:33.359Z,3.10
2019-03-24T02:10:02.319Z,3.20
2019-03-24T02:12:31.219Z,3.20
2019-03-24T02:15:00.287Z,3.10
2019-03-24T02:17:29.376Z,3.10
2019-03-24T02:19:58.361Z,3.10
2019-03-24T02:22:27.280Z,3.10
2019-03-24T02:24:56.223Z,3.10
2019-03-24T02:27:25.126Z,3.10
2019-03-24T02:29:54.074Z,3.20
2019-03-24T02:32:22.971Z,3.30
2019-03-24T02:34:51.928Z,3.20
2019-03-24T02:37:20.847Z,3.30
2019-03-24T02:39:49.787Z,3.30
2019-03-24T02:42:18.695Z,3.30
2019-03-24T02:44:47.648Z,3.40
2019-03-24T02:47:16.553Z,3.40
2019-03-24T02:49:45.517Z,3.50
2019-03-24T02:52:14.432Z,3.40
2019-03-24T02:54:43.519Z,3.40
2019-03-24T02:57:12.477Z,3.40
2019-03-24T02:59:41.486Z,3.40
2019-03-24T03:02:10.402Z,3.40
2019-03-24T03:04:39.342Z,3.40
2019-03-24T03:07:08.255Z,3.30
2019-03-24T03:09:37.172Z,3.20
2019-03-24T03:12:06.286Z,3.20
2019-03-24T03:14:35.236Z,3.20
2019-03-24T03:17:04.192Z,3.20
2019-03-24T03:19:33.138Z,3.20
2019-03-24T03:22:02.137Z,3.20
2019-03-24T03:24:31.057Z,3.10
2019-03-24T03:26:59.998Z,3.10
2019-03-24T03:29:28.900Z,3.10
2019-03-24T03:31:57.862Z,3.10
2019-03-24T03:34:26.764Z,3.00
2019-03-24T03:36:55.715Z,3.00
2019-03-24T03:39:24.649Z,3.10
2019-03-24T03:41:53.606Z,3.00
2019-03-24T03:44:22.515Z,3.10
2019-03-24T03:46:52.933Z,3.00
2019-03-24T03:49:22.184Z,3.10
2019-03-24T03:51:51.120Z,3.10
2019-03-24T03:54:20.033Z,3.10
2019-03-24T03:56:48.986Z,3.20
2019-03-24T03:59:17.903Z,3.10
2019-03-24T04:01:46.843Z,3.20
2019-03-24T04:04:15.749Z,3.20
2019-03-24T04:06:44.710Z,3.30
2019-03-24T04:09:13.613Z,3.30
2019-03-24T04:11:42.560Z,3.30
2019-03-24T04:14:11.458Z,3.30
2019-03-24T04:16:40.404Z,3.30
2019-03-24T04:19:09.315Z,3.20
2019-03-24T04:21:38.270Z,3.30
2019-03-24T04:24:07.177Z,3.20
2019-03-24T04:26:36.126Z,3.30
2019-03-24T04:29:05.026Z,3.20
2019-03-24T04:31:33.968Z,3.30
2019-03-24T04:34:02.879Z,3.30
2019-03-24T04:36:31.835Z,3.30
2019-03-24T04:39:00.748Z,3.30
2019-03-24T04:41:29.685Z,3.30
2019-03-24T04:43:58.599Z,3.30
2019-03-24T04:46:27.500Z,3.30
2019-03-24T04:48:56.451Z,3.40
2019-03-24T04:51:25.355Z,3.40
2019-03-24T04:53:54.306Z,3.40
2019-03-24T04:56:23.209Z,3.40
2019-03-24T04:58:52.165Z,3.40
2019-03-24T05:01:21.076Z,3.40
2019-03-24T05:03:50.020Z,3.30
2019-03-24T05:06:18.932Z,3.30
2019-03-24T05:08:48.388Z,3.30
2019-03-24T05:11:17.292Z,3.30
2019-03-24T05:13:46.230Z,3.30
2019-03-24T05:16:15.137Z,3.30
2019-03-24T05:18:44.099Z,3.30
2019-03-24T05:21:13.001Z,3.30
2019-03-24T05:23:41.947Z,3.20
2019-03-24T05:26:11.224Z,3.20
2019-03-24T05:28:40.175Z,3.30
2019-03-24T05:31:09.069Z,3.20
2019-03-24T05:33:38.025Z,3.30
2019-03-24T05:36:06.930Z,3.30
2019-03-24T05:38:35.877Z,3.30
2019-03-24T05:41:04.781Z,3.30
2019-03-24T05:43:33.740Z,3.30
2019-03-24T05:46:02.639Z,3.30
2019-03-24T05:48:31.585Z,3.30
2019-03-24T05:51:00.488Z,3.40
2019-03-24T05:53:29.438Z,3.40
2019-03-24T05:55:58.350Z,3.40
2019-03-24T05:58:27.509Z,3.50
2019-03-24T06:00:56.427Z,3.50
2019-03-24T06:03:25.328Z,3.50
2019-03-24T06:05:54.336Z,3.60
2019-03-24T06:08:23.234Z,3.60
2019-03-24T06:10:52.180Z,3.60
2019-03-24T06:13:21.075Z,3.70
2019-03-24T06:15:50.036Z,3.70
2019-03-24T06:18:18.934Z,3.80
2019-03-24T06:20:47.882Z,3.80
2019-03-24T06:23:16.809Z,3.80
2019-03-24T06:25:45.726Z,3.80
2019-03-24T06:28:14.632Z,3.80
2019-03-24T06:30:43.595Z,3.80
2019-03-24T06:33:12.483Z,3.80
2019-03-24T06:35:41.453Z,3.90
2019-03-24T06:38:10.365Z,3.90
2019-03-24T06:40:39.455Z,3.90
2019-03-24T06:43:08.345Z,4.00
2019-03-24T06:45:37.300Z,4.00
2019-03-24T06:48:06.216Z,4.00
2019-03-24T06:50:35.226Z,4.10
2019-03-24T06:53:04.165Z,4.10
2019-03-24T06:55:33.611Z,4.10
2019-03-24T06:58:02.522Z,4.20
2019-03-24T07:00:31.466Z,4.20
2019-03-24T07:03:00.375Z,4.30
2019-03-24T07:05:29.333Z,4.40
2019-03-24T07:07:58.645Z,4.40
2019-03-24T07:10:27.574Z,4.40
2019-03-24T07:12:56.489Z,4.60
2019-03-24T07:15:25.450Z,4.60
2019-03-24T07:17:54.351Z,4.60
2019-03-24T07:20:23.262Z,4.70
2019-03-24T07:22:52.212Z,4.70
2019-03-24T07:25:21.107Z,4.80
2019-03-24T07:27:50.063Z,4.90
2019-03-24T07:30:19.978Z,4.90
2019-03-24T07:32:48.966Z,4.90
2019-03-24T07:35:18.410Z,4.90
2019-03-24T07:37:47.567Z,4.90
2019-03-24T07:40:16.583Z,4.90
2019-03-24T07:42:45.529Z,5.00
2019-03-24T07:45:14.639Z,5.00
2019-03-24T07:47:43.587Z,5.00
2019-03-24T07:50:12.686Z,5.10
2019-03-24T07:52:41.638Z,5.20
2019-03-24T07:55:10.542Z,5.30
2019-03-24T07:57:39.493Z,5.40
2019-03-24T08:00:10.152Z,5.40
2019-03-24T08:02:50.674Z,5.40
2019-03-24T08:05:11.177Z,5.50
2019-03-24T08:07:40.125Z,5.50
2019-03-24T08:10:09.233Z,5.60
2019-03-24T08:12:38.225Z,5.60
2019-03-24T08:15:07.401Z,5.60
2019-03-24T08:17:36.358Z,5.70
2019-03-24T08:20:07.636Z,5.80
2019-03-24T08:22:36.573Z,6.00
2019-03-24T08:25:06.792Z,6.10
2019-03-24T08:27:35.742Z,6.20
2019-03-24T08:30:06.755Z,6.30
2019-03-24T08:32:35.707Z,6.40
2019-03-24T08:35:06.428Z,6.50
2019-03-24T08:37:35.372Z,6.50
2019-03-24T08:40:06.276Z,6.50
2019-03-24T08:42:35.231Z,6.60
2019-03-24T08:45:04.534Z,6.70
2019-03-24T08:47:33.479Z,6.70
2019-03-24T08:50:02.380Z,6.70
2019-03-24T08:52:31.333Z,6.80
2019-03-24T08:55:00.383Z,6.80
2019-03-24T08:57:29.353Z,6.80
2019-03-24T08:59:58.296Z,6.90
2019-03-24T09:02:27.198Z,7.00
2019-03-24T09:04:56.152Z,7.10
2019-03-24T09:07:25.060Z,7.00
2019-03-24T09:09:54.011Z,6.80
2019-03-24T09:12:22.918Z,6.60
2019-03-24T09:14:51.862Z,6.40
2019-03-24T09:17:20.776Z,6.20
2019-03-24T09:19:49.714Z,6.10
2019-03-24T09:22:18.623Z,6.10
2019-03-24T09:24:47.576Z,6.30
2019-03-24T09:27:16.485Z,6.50
2019-03-24T09:29:45.444Z,6.70
2019-03-24T09:32:14.344Z,6.90
2019-03-24T09:34:43.284Z,7.00
2019-03-24T09:37:12.191Z,7.20
2019-03-24T09:39:41.525Z,7.30
2019-03-24T09:42:10.435Z,7.40
2019-03-24T09:44:39.377Z,7.40
2019-03-24T09:47:08.282Z,7.40
2019-03-24T09:49:37.230Z,7.40
2019-03-24T09:52:06.136Z,7.50
2019-03-24T09:54:35.087Z,7.50
2019-03-24T09:57:03.987Z,7.90
2019-03-24T09:59:32.965Z,8.20
2019-03-24T10:02:01.935Z,8.20
2019-03-24T10:04:30.878Z,8.20
2019-03-24T10:06:59.791Z,8.20
2019-03-24T10:09:28.737Z,8.20
2019-03-24T10:11:57.637Z,8.20
2019-03-24T10:14:26.598Z,8.30
2019-03-24T10:16:55.789Z,8.10
2019-03-24T10:19:24.899Z,8.00
2019-03-24T10:21:53.856Z,8.20
2019-03-24T10:24:22.765Z,8.50
2019-03-24T10:26:51.808Z,8.70
2019-03-24T10:29:20.715Z,8.90
2019-03-24T10:31:49.670Z,9.10
2019-03-24T10:34:18.584Z,9.20
2019-03-24T10:36:47.529Z,9.20
2019-03-24T10:39:16.434Z,9.00
2019-03-24T10:41:45.415Z,9.20
2019-03-24T10:44:14.327Z,9.10
2019-03-24T10:46:43.279Z,9.00
2019-03-24T10:49:12.183Z,9.00
2019-03-24T10:51:41.134Z,9.00
2019-03-24T10:54:10.066Z,8.90
2019-03-24T10:56:39.014Z,7.40
2019-03-24T10:59:07.943Z,8.40
2019-03-24T11:01:36.889Z,8.10
2019-03-24T11:04:05.935Z,8.30
2019-03-24T11:06:34.879Z,8.80
2019-03-24T11:09:05.278Z,8.90
2019-03-24T11:11:34.231Z,9.00
2019-03-24T11:14:03.146Z,9.40
2019-03-24T11:16:32.093Z,10.00
2019-03-24T11:19:01.006Z,9.80
2019-03-24T11:21:29.956Z,10.00
2019-03-24T11:23:58.865Z,10.00
2019-03-24T11:26:27.810Z,10.00
2019-03-24T11:28:56.718Z,9.60
2019-03-24T11:31:25.663Z,9.70
2019-03-24T11:33:54.586Z,10.00
2019-03-24T11:36:23.511Z,10.00
2019-03-24T11:38:52.464Z,10.20
2019-03-24T11:41:21.365Z,10.40
2019-03-24T11:43:50.326Z,10.70
2019-03-24T11:46:19.239Z,10.80
2019-03-24T11:48:48.197Z,10.60
2019-03-24T11:51:17.112Z,10.20
2019-03-24T11:53:46.059Z,9.50
2019-03-24T11:56:14.967Z,9.20
2019-03-24T11:58:43.990Z,8.90
2019-03-24T12:01:12.918Z,8.70
2019-03-24T12:03:41.859Z,8.60
2019-03-24T12:06:14.676Z,8.90
2019-03-24T12:08:41.355Z,9.20
2019-03-24T12:11:10.267Z,9.60
2019-03-24T12:13:39.205Z,9.80
2019-03-24T12:16:08.109Z,9.70
2019-03-24T12:18:37.057Z,9.60
2019-03-24T12:21:05.968Z,9.30
2019-03-24T12:23:34.915Z,9.00
2019-03-24T12:26:03.824Z,8.70
2019-03-24T12:28:32.779Z,8.70
2019-03-24T12:31:01.706Z,8.80
2019-03-24T12:33:30.639Z,8.80
2019-03-24T12:35:59.540Z,9.00
2019-03-24T12:38:28.495Z,9.10
2019-03-24T12:40:57.414Z,9.10
2019-03-24T12:43:26.323Z,9.20
2019-03-24T12:45:55.278Z,9.30
2019-03-24T12:48:24.237Z,9.60
2019-03-24T12:50:53.233Z,9.40
2019-03-24T12:53:22.146Z,9.50
2019-03-24T12:55:51.096Z,9.60
2019-03-24T12:58:19.999Z,9.70
2019-03-24T13:00:48.937Z,9.70
2019-03-24T13:03:17.848Z,9.70
2019-03-24T13:05:46.796Z,9.50
2019-03-24T13:08:16.804Z,9.20
2019-03-24T13:10:46.647Z,9.20
2019-03-24T13:13:15.555Z,9.40
2019-03-24T13:15:44.521Z,9.40
2019-03-24T13:18:14.040Z,9.40
2019-03-24T13:20:42.979Z,9.30
2019-03-24T13:23:11.871Z,9.40
2019-03-24T13:25:40.833Z,9.50
2019-03-24T13:28:09.717Z,9.50
2019-03-24T13:30:38.666Z,9.30
2019-03-24T13:33:07.628Z,9.20
2019-03-24T13:35:36.557Z,9.10
2019-03-24T13:38:05.464Z,9.30
2019-03-24T13:40:34.418Z,9.40
2019-03-24T13:43:03.315Z,9.60
2019-03-24T13:45:32.251Z,9.70
2019-03-24T13:48:01.164Z,9.80
2019-03-24T13:50:31.764Z,9.90
2019-03-24T13:53:00.668Z,9.90
2019-03-24T13:55:29.698Z,9.80
2019-03-24T13:57:58.608Z,9.80
2019-03-24T14:00:27.558Z,9.70
2019-03-24T14:02:56.465Z,9.30
2019-03-24T14:05:25.598Z,9.10
2019-03-24T14:07:54.506Z,9.30
2019-03-24T14:10:23.460Z,9.20
2019-03-24T14:12:52.410Z,9.00
2019-03-24T14:15:21.352Z,8.90
2019-03-24T14:17:50.374Z,9.00
2019-03-24T14:20:19.393Z,9.30
2019-03-24T14:22:48.333Z,9.40
2019-03-24T14:25:17.226Z,9.30
2019-03-24T14:27:46.168Z,9.60
2019-03-24T14:30:15.774Z,9.70
2019-03-24T14:32:44.724Z,9.40
2019-03-24T14:35:14.621Z,9.50
2019-03-24T14:37:43.540Z,9.50
2019-03-24T14:40:14.211Z,9.40
2019-03-24T14:42:43.158Z,9.20
2019-03-24T14:45:12.173Z,9.10
2019-03-24T14:47:41.114Z,9.10
2019-03-24T14:50:10.347Z,9.00
2019-03-24T14:52:39.419Z,8.80
2019-03-24T14:55:08.314Z,8.70
2019-03-24T14:57:37.261Z,8.70
2019-03-24T15:00:08.669Z,8.70
2019-03-24T15:02:37.615Z,8.60
2019-03-24T15:05:08.319Z,8.40
2019-03-24T15:07:37.266Z,8.40
2019-03-24T15:10:07.978Z,8.50
2019-03-24T15:12:36.929Z,8.50
2019-03-24T15:15:07.419Z,8.50
2019-03-24T15:17:36.585Z,8.60
2019-03-24T15:20:07.492Z,8.60
2019-03-24T15:22:36.445Z,8.70
2019-03-24T15:25:07.017Z,8.50
2019-03-24T15:27:35.965Z,8.50
2019-03-24T15:30:07.812Z,8.60
2019-03-24T15:32:36.878Z,8.70
2019-03-24T15:35:07.350Z,8.60
2019-03-24T15:37:37.189Z,8.50
2019-03-24T15:40:06.534Z,8.50
2019-03-24T15:42:35.898Z,8.40
2019-03-24T15:45:07.201Z,8.40
2019-03-24T15:47:36.847Z,8.50
2019-03-24T15:50:09.933Z,8.60
2019-03-24T15:52:39.168Z,8.60
2019-03-24T15:55:08.265Z,8.60
2019-03-24T15:57:37.936Z,8.50
2019-03-24T16:00:09.189Z,8.50
2019-03-24T16:02:38.087Z,8.30
2019-03-24T16:05:07.338Z,8.30
2019-03-24T16:07:36.292Z,8.30
2019-03-24T16:10:07.243Z,8.30
2019-03-24T16:12:36.410Z,8.30
2019-03-24T16:15:08.800Z,8.20
2019-03-24T16:17:37.970Z,8.10
2019-03-24T16:20:08.628Z,8.00
2019-03-24T16:22:38.729Z,8.00
2019-03-24T16:25:08.621Z,8.00
2019-03-24T16:27:37.595Z,8.00
2019-03-24T16:30:07.862Z,8.00
2019-03-24T16:32:36.762Z,8.00
2019-03-24T16:35:06.944Z,8.00
2019-03-24T16:37:36.388Z,7.90
2019-03-24T16:40:09.336Z,7.70
2019-03-24T16:42:38.262Z,7.50
2019-03-24T16:45:08.096Z,7.40
2019-03-24T16:47:37.004Z,7.20
2019-03-24T16:50:07.464Z,7.20
2019-03-24T16:52:36.390Z,7.20
2019-03-24T16:55:07.633Z,7.20
2019-03-24T16:57:36.532Z,7.10
2019-03-24T17:00:08.932Z,7.10
2019-03-24T17:02:38.033Z,7.00
2019-03-24T17:05:08.721Z,7.00
2019-03-24T17:07:37.715Z,6.90
2019-03-24T17:10:07.968Z,6.90
2019-03-24T17:12:36.981Z,6.90
2019-03-24T17:15:09.161Z,6.80
2019-03-24T17:17:38.063Z,6.80
2019-03-24T17:20:08.512Z,6.70
2019-03-24T17:22:37.724Z,6.60
2019-03-24T17:25:07.073Z,6.60
2019-03-24T17:27:35.973Z,6.60
2019-03-24T17:30:07.945Z,6.60
2019-03-24T17:32:36.861Z,6.50
2019-03-24T17:35:07.472Z,6.50
2019-03-24T17:37:36.398Z,6.50
2019-03-24T17:40:08.371Z,6.40
2019-03-24T17:42:37.409Z,6.40
2019-03-24T17:45:11.116Z,6.40
2019-03-24T17:47:40.130Z,6.30
2019-03-24T17:50:12.010Z,6.30
2019-03-24T17:52:41.129Z,6.30
2019-03-24T17:55:11.442Z,6.30
2019-03-24T17:57:40.386Z,6.30
2019-03-24T18:00:12.567Z,6.30
2019-03-24T18:02:41.516Z,6.30
2019-03-24T18:05:10.926Z,6.30
2019-03-24T18:07:39.874Z,6.20
2019-03-24T18:10:11.385Z,6.30
2019-03-24T18:12:40.397Z,6.20
2019-03-24T18:15:10.819Z,6.20
2019-03-24T18:17:39.762Z,6.20
2019-03-24T18:20:11.072Z,6.20
2019-03-24T18:22:40.019Z,6.20
2019-03-24T18:25:09.624Z,6.20
2019-03-24T18:27:38.772Z,6.10
2019-03-24T18:30:10.379Z,6.20
2019-03-24T18:32:39.321Z,6.20
2019-03-24T18:35:09.340Z,6.20
2019-03-24T18:37:38.525Z,6.10
2019-03-24T18:40:10.221Z,6.10
2019-03-24T18:42:39.302Z,6.00
2019-03-24T18:45:10.665Z,6.00
2019-03-24T18:47:39.623Z,6.00
2019-03-24T18:50:09.632Z,6.00
2019-03-24T18:52:38.588Z,6.00
2019-03-24T18:55:08.483Z,6.00
2019-03-24T18:57:37.447Z,6.00
2019-03-24T19:00:09.489Z,6.10
2019-03-24T19:02:38.566Z,6.00
2019-03-24T19:05:07.986Z,6.00
2019-03-24T19:07:37.959Z,6.00
2019-03-24T19:10:08.918Z,5.90
2019-03-24T19:12:38.065Z,5.80
2019-03-24T19:15:08.675Z,5.80
2019-03-24T19:17:37.632Z,5.90
2019-03-24T19:20:08.035Z,5.80
2019-03-24T19:22:37.097Z,5.70
2019-03-24T19:25:07.426Z,5.80
2019-03-24T19:27:36.376Z,5.80
2019-03-24T19:30:11.031Z,5.70
2019-03-24T19:32:39.967Z,5.60
2019-03-24T19:35:09.159Z,5.50
2019-03-24T19:37:38.315Z,5.40
2019-03-24T19:40:28.077Z,5.40
2019-03-24T19:42:57.029Z,5.20
2019-03-24T19:45:25.932Z,5.10
2019-03-24T19:47:56.187Z,5.10
2019-03-24T19:50:27.628Z,5.00
2019-03-24T19:52:56.725Z,5.10
2019-03-24T19:55:25.625Z,5.00
2019-03-24T19:57:54.608Z,4.90
2019-03-24T20:00:23.718Z,4.90
2019-03-24T20:02:52.961Z,4.90
2019-03-24T20:05:22.925Z,4.80
2019-03-24T20:07:52.108Z,4.80
2019-03-24T20:10:22.214Z,4.80
2019-03-24T20:12:51.125Z,4.70
2019-03-24T20:15:20.069Z,4.70
2019-03-24T20:17:48.972Z,4.70
2019-03-24T20:20:17.922Z,4.70
2019-03-24T20:22:56.000Z,4.70
2019-03-24T20:25:17.425Z,4.80
2019-03-24T20:27:46.338Z,4.70
2019-03-24T20:30:15.699Z,4.60
2019-03-24T20:32:44.587Z,4.70
2019-03-24T20:35:15.002Z,4.60
2019-03-24T20:37:43.908Z,4.60
2019-03-24T20:40:13.455Z,4.60
2019-03-24T20:42:42.357Z,4.60
2019-03-24T20:45:11.607Z,4.60
2019-03-24T20:47:40.515Z,4.60
2019-03-24T20:50:10.554Z,4.50
2019-03-24T20:52:39.467Z,4.50
2019-03-24T20:55:09.718Z,4.60
2019-03-24T20:57:38.634Z,4.50
2019-03-24T21:00:08.586Z,4.50
2019-03-24T21:02:37.480Z,4.50
2019-03-24T21:05:06.856Z,4.60
2019-03-24T21:07:35.763Z,4.60
2019-03-24T21:10:06.715Z,4.60
2019-03-24T21:12:36.124Z,4.50
2019-03-24T21:15:08.041Z,4.50
2019-03-24T21:17:37.047Z,4.50
2019-03-24T21:20:07.985Z,4.60
2019-03-24T21:22:36.869Z,4.60
2019-03-24T21:25:06.724Z,4.60
2019-03-24T21:27:36.244Z,4.60
2019-03-24T21:30:08.251Z,4.60
2019-03-24T21:32:37.153Z,4.70
2019-03-24T21:35:07.209Z,4.70
2019-03-24T21:37:36.115Z,4.70
2019-03-24T21:40:06.976Z,4.80
2019-03-24T21:42:36.012Z,4.80
2019-03-24T21:45:07.453Z,4.90
2019-03-24T21:47:36.358Z,4.90
2019-03-24T21:50:07.374Z,4.90
2019-03-24T21:52:36.330Z,4.90
2019-03-24T21:55:06.034Z,5.00
2019-03-24T21:57:35.000Z,5.00
2019-03-24T22:00:07.734Z,5.10
2019-03-24T22:02:37.694Z,5.10
2019-03-24T22:05:08.743Z,5.20
2019-03-24T22:07:37.846Z,5.20
2019-03-24T22:10:07.851Z,5.20
2019-03-24T22:12:36.914Z,5.20
2019-03-24T22:15:09.923Z,5.30
2019-03-24T22:17:38.859Z,5.20
2019-03-24T22:20:08.166Z,5.30
2019-03-24T22:22:37.156Z,5.30
2019-03-24T22:25:06.676Z,5.30
2019-03-24T22:27:35.696Z,5.30
2019-03-24T22:30:07.109Z,5.30
2019-03-24T22:32:36.052Z,5.30
2019-03-24T22:35:06.195Z,5.30
2019-03-24T22:37:35.139Z,5.40
2019-03-24T22:40:05.946Z,5.40
2019-03-24T22:42:35.418Z,5.40
2019-03-24T22:45:04.856Z,5.40
2019-03-24T22:47:33.804Z,5.40
2019-03-24T22:50:02.720Z,5.40
2019-03-24T22:52:32.283Z,5.50
2019-03-24T22:55:01.191Z,5.50
2019-03-24T22:57:32.561Z,5.50
2019-03-24T23:00:00.682Z,5.50
2019-03-24T23:02:29.648Z,5.50
2019-03-24T23:04:58.560Z,5.40
2019-03-24T23:07:27.507Z,5.40
2019-03-24T23:09:56.417Z,5.40
2019-03-24T23:12:25.369Z,5.40
2019-03-24T23:14:54.286Z,5.40
2019-03-24T23:17:23.219Z,5.40
2019-03-24T23:19:52.129Z,5.40
2019-03-24T23:22:21.327Z,5.40
2019-03-24T23:24:50.226Z,5.40
2019-03-24T23:27:19.140Z,5.40
2019-03-24T23:29:48.087Z,5.40
2019-03-24T23:32:16.992Z,5.30
2019-03-24T23:34:45.950Z,5.30
2019-03-24T23:37:14.855Z,5.20
2019-03-24T23:39:43.803Z,5.20
2019-03-24T23:42:12.710Z,5.20
2019-03-24T23:44:41.654Z,5.20
2019-03-24T23:47:10.856Z,5.20
2019-03-24T23:49:39.810Z,5.20
2019-03-24T23:52:08.710Z,5.30
2019-03-24T23:54:37.663Z,5.30
2019-03-24T23:57:06.563Z,5.30
2019-03-24T23:59:35.518Z,5.30
